ETD2 KJFK-OMAA
Flight info
| Callsign | ETD2 |
|---|---|
| Flight time | N/A |
| Altitude | 33000 |
| Route | SHIPP Y487 ISLES DCT SLATN/M084F330 DCT 40N060W 41N050W 42N040W 4230N03000W 41N020W DCT GUNTI/N0488F330 DCT BUSEN DCT LASIB DCT ROSAL DCT SANTA M744 MGA/N0487F340 DCT NESDA/N0489F330 L112 AMR DCT GATAS DCT TARIK UA44 MOS UA411 DAHRA UZ444 BNA UA411 MORJA DCT SONAK DCT DINUX/N0485F350 DCT DEMAG DCT GUDIS DCT KAVOS DCT EVORA DCT LAKTO L560 SERMA L550 KARIK B411 DEESA Y415 TAMRO/N0492F370 N318 DASVA N685 ORSIS/N0493F350 N685 UMEVU Q415 UKILI |
| Aircraft | A35K/H-SDE2E3GHIJ3J4J5LM1ORWXY/LB1D1 |
Departure
| Time | 2026-05-03 23:57 |
|---|---|
| Airport | John F. Kennedy International Airport (KJFK) |
Arrival
| Time | N/A |
|---|---|
| Airport | Zayed International Airport (OMAA) |
| Time | Latitude | Longitude | Altitude | Speed | Heading |
|---|---|---|---|---|---|
| 2026-05-03 23:15 | 40.64751 | -73.79417 | 30 ft | 0 kts | 150° |
| 2026-05-03 23:42 | 40.64763 | -73.79425 | 29 ft | 4 kts | 150° |
| 2026-05-03 23:43 | 40.64786 | -73.79443 | 27 ft | 4 kts | 150° |
| 2026-05-03 23:43 | 40.64808 | -73.79458 | 27 ft | 4 kts | 174° |
| 2026-05-03 23:43 | 40.64823 | -73.79448 | 28 ft | 4 kts | 249° |
| 2026-05-03 23:43 | 40.64832 | -73.79415 | 26 ft | 4 kts | 243° |
| 2026-05-03 23:44 | 40.64836 | -73.79404 | 28 ft | 0 kts | 240° |
| 2026-05-03 23:46 | 40.64836 | -73.79405 | 28 ft | 0 kts | 240° |
| 2026-05-03 23:47 | 40.64833 | -73.79411 | 26 ft | 2 kts | 240° |
| 2026-05-03 23:47 | 40.64826 | -73.79430 | 27 ft | 3 kts | 242° |
| 2026-05-03 23:47 | 40.64812 | -73.79461 | 27 ft | 5 kts | 240° |
| 2026-05-03 23:47 | 40.64789 | -73.79516 | 28 ft | 7 kts | 241° |
| 2026-05-03 23:48 | 40.64764 | -73.79575 | 29 ft | 7 kts | 239° |
| 2026-05-03 23:48 | 40.64735 | -73.79619 | 29 ft | 3 kts | 198° |
| 2026-05-03 23:48 | 40.64709 | -73.79619 | 29 ft | 4 kts | 172° |
| 2026-05-03 23:48 | 40.64644 | -73.79566 | 29 ft | 19 kts | 145° |
| 2026-05-03 23:49 | 40.64524 | -73.79505 | 30 ft | 18 kts | 176° |
| 2026-05-03 23:49 | 40.64397 | -73.79492 | 30 ft | 18 kts | 176° |
| 2026-05-03 23:49 | 40.64269 | -73.79496 | 30 ft | 18 kts | 183° |
| 2026-05-03 23:49 | 40.64173 | -73.79507 | 30 ft | 8 kts | 185° |
| 2026-05-03 23:50 | 40.64132 | -73.79510 | 29 ft | 0 kts | 182° |
| 2026-05-03 23:50 | 40.64121 | -73.79511 | 29 ft | 3 kts | 182° |
| 2026-05-03 23:50 | 40.64100 | -73.79501 | 28 ft | 4 kts | 152° |
| 2026-05-03 23:50 | 40.64051 | -73.79449 | 28 ft | 14 kts | 133° |
| 2026-05-03 23:51 | 40.63982 | -73.79311 | 27 ft | 24 kts | 117° |
| 2026-05-03 23:51 | 40.63901 | -73.79128 | 27 ft | 22 kts | 122° |
| 2026-05-03 23:51 | 40.63826 | -73.78962 | 29 ft | 21 kts | 121° |
| 2026-05-03 23:51 | 40.63756 | -73.78807 | 34 ft | 18 kts | 121° |
| 2026-05-03 23:52 | 40.63691 | -73.78664 | 34 ft | 20 kts | 121° |
| 2026-05-03 23:52 | 40.63610 | -73.78487 | 35 ft | 24 kts | 121° |
| 2026-05-03 23:52 | 40.63527 | -73.78301 | 31 ft | 24 kts | 121° |
| 2026-05-03 23:52 | 40.63440 | -73.78108 | 30 ft | 25 kts | 121° |
| 2026-05-03 23:53 | 40.63353 | -73.77912 | 30 ft | 24 kts | 119° |
| 2026-05-03 23:53 | 40.63271 | -73.77725 | 33 ft | 23 kts | 120° |
| 2026-05-03 23:53 | 40.63190 | -73.77549 | 35 ft | 22 kts | 122° |
| 2026-05-03 23:53 | 40.63115 | -73.77381 | 34 ft | 22 kts | 121° |
| 2026-05-03 23:54 | 40.63079 | -73.77304 | 33 ft | 2 kts | 126° |
| 2026-05-03 23:54 | 40.63044 | -73.77291 | 33 ft | 9 kts | 186° |
| 2026-05-03 23:54 | 40.62991 | -73.77321 | 33 ft | 8 kts | 209° |
| 2026-05-03 23:54 | 40.62938 | -73.77366 | 33 ft | 9 kts | 214° |
| 2026-05-03 23:55 | 40.62912 | -73.77416 | 33 ft | 4 kts | 267° |
| 2026-05-03 23:55 | 40.62921 | -73.77443 | 33 ft | 2 kts | 298° |
| 2026-05-03 23:55 | 40.62930 | -73.77463 | 33 ft | 3 kts | 301° |
| 2026-05-03 23:55 | 40.62940 | -73.77485 | 33 ft | 3 kts | 301° |
| 2026-05-03 23:56 | 40.63030 | -73.77684 | 36 ft | 58 kts | 300° |
| 2026-05-03 23:56 | 40.63356 | -73.78405 | 28 ft | 124 kts | 301° |
| 2026-05-03 23:56 | 40.63896 | -73.79607 | 28 ft | 180 kts | 300° |
| 2026-05-03 23:56 | 40.64552 | -73.81058 | 365 ft | 202 kts | 301° |
| 2026-05-03 23:57 | 40.65207 | -73.82625 | 1213 ft | 186 kts | 289° |
| 2026-05-03 23:57 | 40.65205 | -73.84078 | 1496 ft | 190 kts | 252° |
| 2026-05-03 23:57 | 40.64293 | -73.85420 | 1596 ft | 213 kts | 213° |
| 2026-05-03 23:57 | 40.63189 | -73.86308 | 1708 ft | 227 kts | 223° |
| 2026-05-03 23:58 | 40.62154 | -73.87915 | 1976 ft | 235 kts | 236° |
| 2026-05-03 23:58 | 40.60813 | -73.89201 | 2334 ft | 250 kts | 202° |
| 2026-05-03 23:58 | 40.59046 | -73.89447 | 2785 ft | 263 kts | 178° |
| 2026-05-03 23:58 | 40.57221 | -73.89016 | 3276 ft | 269 kts | 172° |
| 2026-05-03 23:59 | 40.55376 | -73.88458 | 3725 ft | 275 kts | 168° |
| 2026-05-03 23:59 | 40.53551 | -73.87623 | 4196 ft | 280 kts | 163° |
| 2026-05-03 23:59 | 40.51729 | -73.86686 | 4667 ft | 283 kts | 162° |
| 2026-05-03 23:59 | 40.50513 | -73.86056 | 4965 ft | 286 kts | 162° |
| 2026-05-04 00:00 | 40.48952 | -73.84914 | 5313 ft | 294 kts | 142° |
| 2026-05-04 00:00 | 40.47706 | -73.82773 | 5786 ft | 297 kts | 117° |
| 2026-05-04 00:00 | 40.46875 | -73.80290 | 6325 ft | 298 kts | 109° |
| 2026-05-04 00:00 | 40.46218 | -73.77702 | 6811 ft | 300 kts | 105° |
| 2026-05-04 00:01 | 40.45626 | -73.75061 | 7284 ft | 303 kts | 104° |
| 2026-05-04 00:01 | 40.45038 | -73.72398 | 7803 ft | 305 kts | 104° |
| 2026-05-04 00:01 | 40.44423 | -73.69711 | 8290 ft | 309 kts | 104° |
| 2026-05-04 00:01 | 40.43778 | -73.67019 | 8814 ft | 311 kts | 104° |
| 2026-05-04 00:02 | 40.43101 | -73.64291 | 9349 ft | 315 kts | 104° |
| 2026-05-04 00:02 | 40.42407 | -73.61550 | 9810 ft | 319 kts | 104° |
| 2026-05-04 00:02 | 40.41694 | -73.58763 | 10217 ft | 326 kts | 104° |
| 2026-05-04 00:02 | 40.40960 | -73.55896 | 10462 ft | 338 kts | 105° |
| 2026-05-04 00:03 | 40.40195 | -73.52908 | 10698 ft | 351 kts | 105° |
| 2026-05-04 00:03 | 40.39403 | -73.49823 | 10931 ft | 363 kts | 105° |
| 2026-05-04 00:03 | 40.38583 | -73.46634 | 11175 ft | 375 kts | 106° |
| 2026-05-04 00:03 | 40.37733 | -73.43335 | 11403 ft | 388 kts | 106° |
| 2026-05-04 00:04 | 40.36859 | -73.39944 | 11629 ft | 399 kts | 106° |
| 2026-05-04 00:04 | 40.35957 | -73.36447 | 11882 ft | 409 kts | 107° |
| 2026-05-04 00:04 | 40.35039 | -73.32895 | 12287 ft | 414 kts | 107° |
| 2026-05-04 00:04 | 40.34108 | -73.29301 | 12763 ft | 418 kts | 107° |
| 2026-05-04 00:05 | 40.33084 | -73.25716 | 13110 ft | 424 kts | 115° |
| 2026-05-04 00:05 | 40.31697 | -73.22339 | 13584 ft | 427 kts | 121° |
| 2026-05-04 00:05 | 40.30131 | -73.18958 | 14047 ft | 430 kts | 123° |
| 2026-05-04 00:05 | 40.28528 | -73.15697 | 14439 ft | 433 kts | 124° |
| 2026-05-04 00:06 | 40.26868 | -73.12411 | 14849 ft | 437 kts | 124° |
| 2026-05-04 00:06 | 40.25167 | -73.09068 | 15245 ft | 440 kts | 125° |